Ibai Sánchez

Jefe de ojeadores - Betis
22 Feb 2028
Martes
Continuar

Personalidad

Adaptabilidad (18) Ambición (17) Controversia (14) Lealtad (16) Presión (3) Profesionalismo (9) Deportividad (15) Temperamento (7)

Perfil

Estilo de dirección Democrático
Licencia Nacional A
Determinación 14
Gestión de personas 8
Motivación 6
Disciplina 10
Satisfacción laboral
100%
Fatiga
0%
Cargo Jefe de ojeadores
Salario 65.0K p/s
Contrato 14.03.2029

Rendimiento

Comportamiento Bueno
Efectividad del entrenamiento
56%
Desarrollo de jugadores
70%
Prevención de lesiones
50%
Implementación táctica
55%

Eventos recientes

Asistió a una reunión de captación ahora
Asistió a una reunión de captación ahora
Asistió a una reunión de captación ahora
Asistió a una reunión de captación ahora
Asistió a una reunión de captación ahora
Asistió a una reunión de captación ahora
Recomendó un objetivo de fichaje ahora
Recomendó un objetivo de fichaje ahora

Actualmente siguiendo

195
Jugador Club Estado Habilidad Confianza Observado Última observación Último voto
Jorge Salinas Racing Santander Activo 133 / 131 40% 1 21.02.2028 -
Daniel Banjaqui Benfica Activo 119 / 126 40% 1 21.02.2028 -
Héctor Fort Real Sociedad Activo 135 / 138 40% 1 21.02.2028 -
Ayden Heaven Luton Town Activo 145 / 148 40% 3 20.02.2028 -
Archie Gray Derby County Activo 155 / 159 40% 2 20.02.2028 -
Lucas Høgsberg RC Strasbourg Activo 142 / 145 40% 1 20.02.2028 -
Ronan Kpakio Cardiff City Activo 127 / 133 40% 1 19.02.2028 -
Jaydee Canvot AJ Auxerre Activo 141 / 143 40% 1 18.02.2028 -
Esquerdinha Shrewsbury Town Activo 120 / 123 40% 1 18.02.2028 -
Ismail Al Suwaidi Al Fujairah Activo 123 / 132 40% 1 18.02.2028 -
Nhoa Sangui Chamois Niortais Activo 125 / 133 40% 2 17.02.2028 -
Khalis Merah Toulouse FC Activo 127 / 142 40% 2 17.02.2028 -
Enzo Koffi Le Havre AC Activo 113 / 118 40% 1 17.02.2028 -
Tobías Andrada Virtus Entella Activo 121 / 122 40% 1 15.02.2028 -
Trey Nyoni Rotherham United Negociando 138 / 141 40% 2 11.02.2028 -
Izan Merino Málaga Activo 133 / 136 40% 2 08.02.2028 -
Avery Appiah Ajax Activo 114 / 122 40% 1 08.02.2028 -
Kauã Moraes Cruzeiro Activo 127 / 138 40% 1 08.02.2028 -
Darryl Bakola Padova Activo 118 / 123 40% 1 07.02.2028 -
Marc Bernal Real Sociedad Activo 146 / 160 40% 1 07.02.2028 -
Jan Bürger Gillingham Negociando 121 / 128 40% 2 24.01.2028 -
Agustín Obregón River Plate Activo 112 / 127 40% 1 24.01.2028 -
Buba Sangaré Elche Activo 134 / 138 40% 1 24.01.2028 -
Josh King Chelsea Activo 142 / 145 40% 2 17.01.2028 -
Álex Muñoz Almería Informe listo 127 / 131 76% 1 02.01.2028 -
Alessandro Buongiorno Sassuolo Perdido 154 / 154 68% 1 01.01.2028 -
Nicolás González Juventus Activo 161 / 156 40% 1 31.12.2027 -
Nevot Ratner Maccabi Haifa Activo 103 / 108 40% 1 10.08.2027 -
Jon Martín Real Sociedad Activo 134 / 149 40% 1 10.08.2027 -
Nicolás Azambuja Cádiz Activo 121 / 124 40% 1 16.06.2027 -
Donnell McNeilly Nottingham Forest Activo 116 / 123 40% 1 16.06.2027 -
Kauã Elias Anderlecht Activo 135 / 134 40% 1 16.06.2027 -
Endrick Real Madrid Activo 153 / 164 40% 1 15.06.2027 -
Gabriel Silva Sporting CP Activo 104 / 110 40% 1 15.06.2027 -
Stefanos Tzimas Brighton Activo 133 / 146 40% 1 15.06.2027 -
Enzo Barrenechea Betis Negociando 147 / 148 67% 1 01.06.2027 -
Exequiel Palacios Valencia Activo 157 / 157 66% 1 01.06.2027 -
Georges Mikautadze Villarreal Activo 159 / 143 40% 10 31.05.2027 -
Kiernan Dewsbury-Hall Everton Activo 149 / 143 40% 5 31.05.2027 -
Bryan Mbeumo Manchester United Activo 162 / 161 40% 7 30.05.2027 -
Tani Oluwaseyi Villarreal Activo 140 / 146 40% 5 30.05.2027 -
Pablo Torre Mallorca Activo 142 / 139 40% 7 30.05.2027 -
Nazareno Kihm Ferro Carril Oeste Activo 114 / 119 40% 1 30.05.2027 -
Ilaix Moriba Celta Activo 153 / 149 40% 4 27.05.2027 -
Georginio Rutter Brighton Activo 153 / 145 40% 4 27.05.2027 -
Aimar Osasuna Activo 153 / 153 40% 7 27.05.2027 -
Jacob Ramsey Newcastle United Activo 154 / 146 40% 9 27.05.2027 -
Alberto Moleiro Villarreal Activo 161 / 162 40% 2 27.05.2027 -
Bryan Gil Girona Activo 151 / 148 40% 6 26.05.2027 -
Alexis Saelemaekers AC Milan Activo 152 / 148 40% 1 26.05.2027 -
Dango Ouattara Brentford Activo 149 / 145 40% 8 25.05.2027 -
Mason Mount Manchester United Activo 158 / 159 40% 3 25.05.2027 -
Anton Stach Leeds United Activo 149 / 147 40% 1 25.05.2027 -
Mikkel Damsgaard Brentford Activo 141 / 141 40% 5 24.05.2027 -
Hugo Álvarez Celta Activo 141 / 147 40% 1 24.05.2027 -
Giacomo Raspadori Atalanta Activo 154 / 150 40% 6 23.05.2027 -
Malick Fofana Sunderland Activo 146 / 152 40% 2 23.05.2027 -
Oihan Sancet Athletic Bilbao Activo 161 / 165 40% 9 22.05.2027 -
Hector Ramirez Newcastle United Activo 158 / 154 40% 15 21.05.2027 -
Nicolas Jackson Aston Villa Activo 147 / 154 40% 6 21.05.2027 -
Antonio Blanco Alavés Activo 145 / 153 40% 1 21.05.2027 -
Mikel Jauregizar Athletic Bilbao Activo 158 / 154 40% 4 20.05.2027 -
Matheus Cunha Manchester United Activo 154 / 163 40% 14 17.05.2027 -
Ez Abde Girona Activo 151 / 148 40% 8 17.05.2027 -
Matías Soulé AS Roma Activo 162 / 160 40% 5 15.05.2027 -
Kevin Fulham Activo 155 / 147 40% 6 13.05.2027 -
Mats Wieffer Brighton Activo 144 / 148 40% 3 12.05.2027 -
Callum Hudson-Odoi Nottingham Forest Activo 154 / 144 40% 5 12.05.2027 -
Quinten Timber Crystal Palace Activo 151 / 155 40% 1 12.05.2027 -
Tyler Adams Bournemouth Activo 149 / 150 40% 4 10.05.2027 -
James Maddison Tottenham Activo 153 / 154 40% 3 10.05.2027 -
Pablo Barrios Atlético Madrid Activo 163 / 154 40% 8 09.05.2027 -
Jadon Sancho Manchester United Activo 152 / 146 40% 1 09.05.2027 -
Omar El Hilali Espanyol Activo 148 / 150 40% 5 06.05.2027 -
Matt O'Riley Brighton Activo 146 / 143 40% 3 01.05.2027 -
Takefusa Kubo Real Sociedad Activo 158 / 155 40% 3 01.05.2027 -
Santi Comesaña Villarreal Activo 150 / 147 40% 1 29.04.2027 -
Johnny Cardoso Atlético Madrid Activo 154 / 154 40% 6 26.04.2027 -
Yankuba Minteh Brighton Activo 145 / 149 40% 1 24.04.2027 -
Assane Diao Lazio Activo 150 / 154 40% 3 22.04.2027 -
Xavi Simons Tottenham Activo 162 / 153 40% 6 22.04.2027 -
Mohammed Kudus Tottenham Activo 157 / 150 40% 7 19.04.2027 -
João Pedro Chelsea Activo 152 / 146 40% 4 15.04.2027 -
Jesús Rodríguez Como Activo 149 / 145 40% 1 15.04.2027 -
Marcus Rashford Manchester United Activo 155 / 159 40% 7 07.04.2027 -
Dodi Lukébakio Benfica Activo 144 / 140 40% 1 07.04.2027 -
Amadou Onana Aston Villa Activo 155 / 160 40% 5 06.04.2027 -
Jarrod Bowen West Ham United Activo 152 / 152 40% 3 04.04.2027 -
Kang-In Lee Atlético Madrid Activo 165 / 156 40% 10 03.04.2027 -
Morgan Rogers Chelsea Activo 163 / 166 40% 6 02.04.2027 -
Mikel Oyarzábal Real Sociedad Activo 153 / 164 40% 4 02.04.2027 -
Adam Wharton Crystal Palace Activo 148 / 160 40% 2 02.04.2027 -
Sofiane Diop OGC Nice Activo 143 / 140 40% 1 01.04.2027 -
Gabriel Martinelli Brighton Activo 161 / 160 40% 6 31.03.2027 -
Pape Guèye Villarreal Activo 147 / 147 40% 5 29.03.2027 -
Álex Baena Atlético Madrid Activo 155 / 153 40% 4 25.03.2027 -
Carlos Vicente Birmingham Activo 150 / 147 40% 3 25.03.2027 -
Ademola Lookman Atlético Madrid Activo 159 / 156 40% 10 17.03.2027 -
Adrien Truffert Bournemouth Activo 152 / 152 40% 1 09.03.2027 -
Ryan Sessegnon Fulham Activo 149 / 142 40% 2 05.03.2027 -
Pape Diong Westerlo Activo 107 / 119 40% 1 01.03.2027 -
Amadou Niang Al Ain Activo 109 / 121 40% 1 01.03.2027 -
Osame Sahraoui LOSC Lille Activo 144 / 149 40% 2 26.02.2027 -
Khvicha Kvaratskhelia Paris Saint-Germain Activo 168 / 165 40% 4 25.02.2027 -
Geny Sporting CP Activo 142 / 149 40% 1 25.02.2027 -
Jofre Torrents Ajax Activo 120 / 131 40% 1 19.02.2027 -
Davide Bartesaghi AC Milan Activo 131 / 129 40% 1 19.02.2027 -
Taras Mykhavko Dynamo Kyiv Activo 132 / 128 40% 1 18.02.2027 -
Bradley Barcola Liverpool Activo 166 / 159 40% 4 16.02.2027 -
Gavi Barcelona Activo 160 / 162 40% 2 11.02.2027 -
Kai Havertz Arsenal Activo 160 / 167 40% 3 11.02.2027 -
Rémi Lemoine Chamois Niortais Activo 163 / 162 40% 1 11.02.2027 -
Matías Gómez Granada Activo 117 / 115 40% 1 11.02.2027 -
Émile Fontaine Chamois Niortais Activo 120 / 124 40% 1 11.02.2027 -
Jack Hinshelwood Brighton Activo 145 / 143 40% 1 09.02.2027 -
Cheveyo Tsawa Club Brugge Activo 112 / 119 40% 1 09.02.2027 -
Kenan Yıldız Juventus Activo 160 / 165 40% 1 07.02.2027 -
Kevin Vazquez Cruz Azul Activo 127 / 138 40% 1 06.02.2027 -
Fermín Barcelona Activo 162 / 161 67% 2 05.02.2027 Aprobar
Désiré Doué Paris Saint-Germain Activo 164 / 159 40% 1 05.02.2027 -
Amad Manchester United Activo 150 / 151 40% 1 03.02.2027 -
Ryan Gravenberch Liverpool Activo 156 / 159 40% 4 18.01.2027 -
Jan Paul van Hecke Tottenham Activo 162 / 161 40% 2 18.01.2027 -
Mads Hermansen West Ham United Activo 136 / 131 40% 2 03.01.2027 -
Tyler Morton Olympique Lyonnais Activo 142 / 145 68% 1 01.01.2027 Aprobar
Unai Marrero Real Sociedad Activo 120 / 124 40% 1 01.01.2027 -
Gianluigi Donnarumma Manchester City Activo 174 / 176 40% 3 29.12.2026 -
Grégoire Coudert Burnley Activo 132 / 130 40% 2 29.12.2026 -
Yehvann Diouf OGC Nice Activo 142 / 135 40% 1 29.12.2026 -
Thiago Brentford Activo 148 / 152 40% 4 28.12.2026 -
Dani Olmo Barcelona Activo 171 / 159 40% 2 28.12.2026 -
Dušan Vlahović Juventus Activo 158 / 158 40% 3 26.12.2026 Observar
Gabriel Jesus Barcelona Activo 149 / 154 40% 3 24.12.2026 -
Levi Colwill Chelsea Activo 153 / 155 40% 3 24.12.2026 -
Antoine Semenyo Manchester City Activo 165 / 160 40% 6 20.12.2026 -
Jean-Philippe Mateta Crystal Palace Activo 150 / 149 40% 1 20.12.2026 -
Cody Gakpo Liverpool Activo 162 / 159 40% 6 17.12.2026 -
Rayan Cherki Manchester City Activo 166 / 163 40% 2 17.12.2026 -
Martín Zubimendi Arsenal Activo 162 / 169 40% 3 16.12.2026 -
Ferran Torres Paris Saint-Germain Activo 162 / 167 40% 1 16.12.2026 Más información
Erick Reyes Toluca Activo 138 / 139 40% 5 12.12.2026 -
Declan Rice Arsenal Activo 183 / 189 40% 11 11.12.2026 -
Jorge De Frutos Rayo Vallecano Activo 140 / 144 40% 3 11.12.2026 -
Gonçalo Ramos AC Milan Activo 154 / 158 40% 1 08.12.2026 Más información
Jonás Luna Santa Clara Activo 115 / 121 40% 2 07.12.2026 -
Agustín Ruberto River Plate Activo 113 / 126 40% 1 07.12.2026 -
Iliman N'Diaye Everton Activo 161 / 153 40% 5 05.12.2026 -
Federico Chiesa Liverpool Activo 149 / 157 40% 1 29.11.2026 -
Iwan Morgan Grimsby Town Activo 113 / 119 40% 1 28.11.2026 -
Taty Castellanos West Ham United Activo 151 / 146 40% 1 25.11.2026 -
Aurélien Tchouaméni Real Madrid Activo 165 / 174 40% 3 24.11.2026 -
Matthijs de Ligt Manchester United Activo 156 / 159 40% 1 24.11.2026 -
Viktor Gyökeres Arsenal Activo 159 / 151 40% 1 22.11.2026 -
Rodrygo Real Madrid Activo 158 / 172 40% 2 21.11.2026 Más información
Sandro Tonali Tottenham Activo 173 / 164 40% 6 16.11.2026 -
Ousmane Dembélé Paris Saint-Germain Activo 191 / 179 40% 3 16.11.2026 -
Jurriën Timber Arsenal Activo 164 / 159 40% 4 15.11.2026 -
Lazar Carević Famalicao Activo 128 / 125 40% 1 11.11.2026 -
Jonathan Fischer FC Metz Activo 129 / 133 40% 1 11.11.2026 -
Wesley Fofana Chelsea Activo 156 / 153 40% 4 09.11.2026 -
Dominik Szoboszlai Liverpool Activo 168 / 162 40% 1 09.11.2026 Más información
Romelu Witsel Liverpool Activo 163 / 170 40% 1 07.11.2026 -
Marcus Thuram Real Madrid Activo 165 / 161 40% 2 05.11.2026 -
Cezary Miszta Rio Ave Activo 123 / 132 40% 3 02.11.2026 -
Hugo Souza Corinthians Activo 142 / 134 40% 2 02.11.2026 -
Sven Botman Newcastle United Activo 165 / 158 40% 1 29.10.2026 -
Alexis Mac Allister Liverpool Activo 159 / 153 40% 2 28.10.2026 -
Ibrahima Konaté Real Madrid Activo 156 / 165 40% 3 26.10.2026 -
Jeremie Frimpong Liverpool Activo 163 / 153 40% 1 26.10.2026 -
Julen Agirrezabala Racing Santander Activo 137 / 143 40% 2 25.10.2026 -
Achraf Hakimi Paris Saint-Germain Activo 178 / 183 40% 2 23.10.2026 -
Caoimhin Kelleher Brentford Activo 145 / 148 40% 3 23.10.2026 -
Tomoki Hayakawa Kashima Antlers Activo 147 / 149 40% 2 23.10.2026 -
Fernando Tapia Club America Activo 134 / 119 40% 1 23.10.2026 -
Enzo Fernández Manchester City Activo 169 / 161 40% 3 20.10.2026 -
Elliot Anderson Manchester City Activo 155 / 147 40% 2 18.10.2026 -
Marc Guéhi Manchester City Activo 163 / 172 40% 2 18.10.2026 Más información
William Saliba Arsenal Activo 176 / 174 40% 2 15.10.2026 -
Jesús Areso Athletic Bilbao Activo 141 / 148 40% 1 13.10.2026 -
Pierre Kalulu Juventus Activo 146 / 149 40% 1 11.10.2026 -
Eduardo Camavinga Real Madrid Activo 161 / 173 40% 2 09.10.2026 Más información
Arijanet Murić Sassuolo Activo 135 / 142 40% 2 09.10.2026 -
Eric García Barcelona Activo 161 / 157 40% 2 07.10.2026 Más información
Senne Lammens Manchester United Activo 140 / 145 40% 1 07.10.2026 -
Robin Roefs Sunderland Activo 138 / 145 40% 3 06.10.2026 -
Matvey Safonov Paris Saint-Germain Activo 155 / 157 40% 2 03.10.2026 -
Carlos Miguel Palmeiras Activo 131 / 133 40% 2 01.10.2026 -
Guilherme Fernandes Córdoba Activo 128 / 131 40% 3 29.09.2026 -
Joan García Barcelona Activo 154 / 160 40% 2 27.09.2026 -
Jarrad Branthwaite Everton Activo 150 / 152 40% 1 22.09.2026 -
Gonzalo Crettaz NEC Activo 122 / 131 40% 1 20.09.2026 -
Tino Livramento Newcastle United Activo 150 / 158 40% 1 20.09.2026 -
Aitor Paredes Athletic Bilbao Activo 150 / 155 40% 1 14.09.2026 -
Dani Vivian Athletic Bilbao Activo 152 / 149 40% 1 13.09.2026 -
Reece James Chelsea Activo 176 / 169 40% 1 11.09.2026 -